Wuyishan, China
Current Conditions -  °F | °C
As of 8:00 AM on Saturday 20 Dec 2014 (Local Time) from ZSFZ Reporting Station
Clear Clear  
Wind Chill: 50°   Ceiling: Unl
Heat Index: 50°   Visibility: 6mi
Dew Point: 37°   Wind: 4mph
Humidity: 62%   Direction: 330°NNW
Pressure: 30.27"   Gusts: NA
Location:  27.77°N, 118.03°E
Report Text: ZSFZ 200000Z 33002MPS 290V030 CAVOK 10/03 Q1025 BECMG TL010005007MPS
Loading
Personal Weather Stations






























Interactive Weather Map New forecast layout! Learn more

10-Day Weather Forecast

Advertisements
Track Severe Weather on mobile